sensor_id;sensor_type;location;lat;lon;timestamp;pressure;altitude;pressure_sealevel;temperature;humidity
23176;BME280;19910;42.652;23.332;2023-10-31T00:01:39;94826.50;;;9.56;95.90
23176;BME280;19910;42.652;23.332;2023-10-31T00:04:06;94824.25;;;9.50;96.21
23176;BME280;19910;42.652;23.332;2023-10-31T00:06:34;94824.09;;;9.55;96.15
23176;BME280;19910;42.652;23.332;2023-10-31T00:09:01;94824.84;;;9.47;95.81
23176;BME280;19910;42.652;23.332;2023-10-31T00:11:28;94819.44;;;9.38;96.41
23176;BME280;19910;42.652;23.332;2023-10-31T00:13:55;94812.31;;;9.51;96.87
23176;BME280;19910;42.652;23.332;2023-10-31T00:16:23;94820.41;;;9.42;96.53
23176;BME280;19910;42.652;23.332;2023-10-31T00:18:50;94813.25;;;9.38;96.18
23176;BME280;19910;42.652;23.332;2023-10-31T00:21:16;94811.16;;;9.35;96.34
23176;BME280;19910;42.652;23.332;2023-10-31T00:23:46;94812.31;;;9.51;96.52
23176;BME280;19910;42.652;23.332;2023-10-31T00:26:14;94811.81;;;9.40;96.74
23176;BME280;19910;42.652;23.332;2023-10-31T00:28:41;94811.16;;;9.35;97.47
23176;BME280;19910;42.652;23.332;2023-10-31T00:31:08;94809.72;;;9.29;98.32
23176;BME280;19910;42.652;23.332;2023-10-31T00:33:37;94807.16;;;9.23;98.94
23176;BME280;19910;42.652;23.332;2023-10-31T00:36:04;94817.34;;;9.26;98.57
23176;BME280;19910;42.652;23.332;2023-10-31T00:38:31;94806.19;;;9.19;98.46
23176;BME280;19910;42.652;23.332;2023-10-31T00:40:59;94803.81;;;9.18;99.12
23176;BME280;19910;42.652;23.332;2023-10-31T00:43:26;94805.06;;;9.12;99.55
23176;BME280;19910;42.652;23.332;2023-10-31T00:45:53;94793.09;;;9.04;99.77
23176;BME280;19910;42.652;23.332;2023-10-31T00:48:20;94795.31;;;9.02;99.73
23176;BME280;19910;42.652;23.332;2023-10-31T00:50:47;94799.50;;;9.08;100.00
23176;BME280;19910;42.652;23.332;2023-10-31T00:53:14;94806.63;;;9.04;100.00
23176;BME280;19910;42.652;23.332;2023-10-31T00:55:42;94799.63;;;9.03;100.00
23176;BME280;19910;42.652;23.332;2023-10-31T00:58:11;94789.31;;;9.05;100.00
23176;BME280;19910;42.652;23.332;2023-10-31T01:00:38;94795.19;;;8.99;100.00
23176;BME280;19910;42.652;23.332;2023-10-31T01:03:04;94792.00;;;8.97;100.00
23176;BME280;19910;42.652;23.332;2023-10-31T01:05:31;94784.00;;;8.91;100.00
23176;BME280;19910;42.652;23.332;2023-10-31T01:07:58;94780.69;;;8.95;100.00
23176;BME280;19910;42.652;23.332;2023-10-31T01:10:25;94771.97;;;8.98;100.00
23176;BME280;19910;42.652;23.332;2023-10-31T01:12:52;94778.16;;;8.98;100.00
23176;BME280;19910;42.652;23.332;2023-10-31T01:15:20;94775.97;;;9.00;100.00
23176;BME280;19910;42.652;23.332;2023-10-31T01:17:47;94773.56;;;8.99;100.00
23176;BME280;19910;42.652;23.332;2023-10-31T01:20:14;94776.56;;;8.97;100.00
23176;BME280;19910;42.652;23.332;2023-10-31T01:22:41;94773.09;;;9.05;100.00
23176;BME280;19910;42.652;23.332;2023-10-31T01:25:08;94769.28;;;9.06;100.00
23176;BME280;19910;42.652;23.332;2023-10-31T01:27:36;94768.47;;;9.06;100.00
23176;BME280;19910;42.652;23.332;2023-10-31T01:30:03;94765.59;;;9.02;100.00
23176;BME280;19910;42.652;23.332;2023-10-31T01:32:32;94762.59;;;8.95;100.00
23176;BME280;19910;42.652;23.332;2023-10-31T01:34:58;94768.59;;;8.83;100.00
23176;BME280;19910;42.652;23.332;2023-10-31T01:37:25;94767.91;;;8.78;100.00
23176;BME280;19910;42.652;23.332;2023-10-31T01:39:52;94762.53;;;8.78;100.00
23176;BME280;19910;42.652;23.332;2023-10-31T01:42:19;94765.09;;;8.83;100.00
23176;BME280;19910;42.652;23.332;2023-10-31T01:44:46;94762.69;;;8.81;100.00
23176;BME280;19910;42.652;23.332;2023-10-31T01:47:13;94765.28;;;9.04;100.00
23176;BME280;19910;42.652;23.332;2023-10-31T01:49:41;94772.75;;;8.98;100.00
23176;BME280;19910;42.652;23.332;2023-10-31T01:52:08;94763.81;;;8.89;100.00
23176;BME280;19910;42.652;23.332;2023-10-31T01:54:35;94764.00;;;8.93;100.00
23176;BME280;19910;42.652;23.332;2023-10-31T01:57:04;94765.81;;;9.14;100.00
23176;BME280;19910;42.652;23.332;2023-10-31T01:59:31;94767.06;;;9.08;100.00
23176;BME280;19910;42.652;23.332;2023-10-31T02:01:58;94766.75;;;9.01;100.00
23176;BME280;19910;42.652;23.332;2023-10-31T02:04:27;94755.16;;;9.09;100.00
23176;BME280;19910;42.652;23.332;2023-10-31T02:06:55;94754.22;;;9.31;100.00
23176;BME280;19910;42.652;23.332;2023-10-31T02:09:22;94750.41;;;9.15;100.00
23176;BME280;19910;42.652;23.332;2023-10-31T02:11:52;94741.28;;;9.02;100.00
23176;BME280;19910;42.652;23.332;2023-10-31T02:14:19;94743.53;;;9.00;100.00
23176;BME280;19910;42.652;23.332;2023-10-31T02:16:45;94744.81;;;9.11;100.00
23176;BME280;19910;42.652;23.332;2023-10-31T02:19:14;94738.63;;;9.11;100.00
23176;BME280;19910;42.652;23.332;2023-10-31T02:21:46;94737.53;;;9.20;100.00
23176;BME280;19910;42.652;23.332;2023-10-31T02:24:13;94737.66;;;9.07;100.00
23176;BME280;19910;42.652;23.332;2023-10-31T02:26:40;94731.94;;;9.00;100.00
23176;BME280;19910;42.652;23.332;2023-10-31T02:29:07;94739.06;;;9.04;100.00
23176;BME280;19910;42.652;23.332;2023-10-31T02:31:35;94733.97;;;8.94;100.00
23176;BME280;19910;42.652;23.332;2023-10-31T02:34:02;94727.22;;;9.40;100.00
23176;BME280;19910;42.652;23.332;2023-10-31T02:36:29;94727.50;;;9.30;100.00
23176;BME280;19910;42.652;23.332;2023-10-31T02:38:57;94734.00;;;9.11;100.00
23176;BME280;19910;42.652;23.332;2023-10-31T02:41:23;94733.34;;;8.97;100.00
23176;BME280;19910;42.652;23.332;2023-10-31T02:43:50;94732.19;;;8.89;100.00
23176;BME280;19910;42.652;23.332;2023-10-31T02:46:20;94730.41;;;8.76;100.00
23176;BME280;19910;42.652;23.332;2023-10-31T02:48:47;94731.19;;;8.68;100.00
23176;BME280;19910;42.652;23.332;2023-10-31T02:51:13;94727.22;;;8.66;100.00
23176;BME280;19910;42.652;23.332;2023-10-31T02:53:40;94730.53;;;8.63;100.00
23176;BME280;19910;42.652;23.332;2023-10-31T02:56:09;94731.31;;;8.54;100.00
23176;BME280;19910;42.652;23.332;2023-10-31T02:58:35;94727.41;;;8.38;100.00
23176;BME280;19910;42.652;23.332;2023-10-31T03:01:03;94742.34;;;8.36;100.00
23176;BME280;19910;42.652;23.332;2023-10-31T03:03:29;94747.47;;;8.46;100.00
23176;BME280;19910;42.652;23.332;2023-10-31T03:05:56;94744.00;;;8.54;100.00
23176;BME280;19910;42.652;23.332;2023-10-31T03:08:23;94728.41;;;8.42;100.00
23176;BME280;19910;42.652;23.332;2023-10-31T03:10:50;94734.78;;;8.46;100.00
23176;BME280;19910;42.652;23.332;2023-10-31T03:13:19;94733.03;;;8.50;100.00
23176;BME280;19910;42.652;23.332;2023-10-31T03:15:46;94745.13;;;8.53;100.00
23176;BME280;19910;42.652;23.332;2023-10-31T03:18:13;94739.38;;;8.24;100.00
23176;BME280;19910;42.652;23.332;2023-10-31T03:20:43;94737.16;;;8.17;100.00
23176;BME280;19910;42.652;23.332;2023-10-31T03:23:11;94735.06;;;8.14;100.00
23176;BME280;19910;42.652;23.332;2023-10-31T03:25:38;94729.16;;;8.12;100.00
23176;BME280;19910;42.652;23.332;2023-10-31T03:28:16;94736.16;;;8.13;100.00
23176;BME280;19910;42.652;23.332;2023-10-31T03:30:45;94721.06;;;8.12;100.00
23176;BME280;19910;42.652;23.332;2023-10-31T03:33:12;94726.03;;;8.18;100.00
23176;BME280;19910;42.652;23.332;2023-10-31T03:35:39;94714.66;;;8.30;100.00
23176;BME280;19910;42.652;23.332;2023-10-31T03:38:06;94706.22;;;8.23;100.00
23176;BME280;19910;42.652;23.332;2023-10-31T03:40:32;94714.19;;;8.28;100.00
23176;BME280;19910;42.652;23.332;2023-10-31T03:42:59;94714.16;;;8.19;100.00
23176;BME280;19910;42.652;23.332;2023-10-31T03:45:26;94697.88;;;8.33;100.00
23176;BME280;19910;42.652;23.332;2023-10-31T03:47:54;94700.81;;;8.23;100.00
23176;BME280;19910;42.652;23.332;2023-10-31T03:50:21;94708.56;;;8.16;100.00
23176;BME280;19910;42.652;23.332;2023-10-31T03:52:48;94712.88;;;7.95;100.00
23176;BME280;19910;42.652;23.332;2023-10-31T03:55:15;94715.94;;;7.79;100.00
23176;BME280;19910;42.652;23.332;2023-10-31T03:57:42;94720.38;;;7.75;100.00
23176;BME280;19910;42.652;23.332;2023-10-31T04:00:09;94715.84;;;7.62;100.00
23176;BME280;19910;42.652;23.332;2023-10-31T04:02:37;94714.06;;;7.58;100.00
23176;BME280;19910;42.652;23.332;2023-10-31T04:05:06;94721.25;;;7.62;100.00
23176;BME280;19910;42.652;23.332;2023-10-31T04:07:33;94715.84;;;7.62;100.00
23176;BME280;19910;42.652;23.332;2023-10-31T04:10:00;94725.03;;;7.61;100.00
23176;BME280;19910;42.652;23.332;2023-10-31T04:12:28;94737.22;;;7.59;100.00
23176;BME280;19910;42.652;23.332;2023-10-31T04:14:55;94719.66;;;7.61;100.00
23176;BME280;19910;42.652;23.332;2023-10-31T04:17:22;94724.06;;;7.57;100.00
23176;BME280;19910;42.652;23.332;2023-10-31T04:19:49;94710.03;;;7.69;100.00
23176;BME280;19910;42.652;23.332;2023-10-31T04:22:17;94710.22;;;7.72;100.00
23176;BME280;19910;42.652;23.332;2023-10-31T04:24:44;94705.44;;;7.69;100.00
23176;BME280;19910;42.652;23.332;2023-10-31T04:27:11;94697.28;;;7.61;100.00
23176;BME280;19910;42.652;23.332;2023-10-31T04:29:38;94699.31;;;7.55;100.00
23176;BME280;19910;42.652;23.332;2023-10-31T04:32:05;94696.13;;;7.53;100.00
23176;BME280;19910;42.652;23.332;2023-10-31T04:34:32;94695.31;;;7.53;100.00
23176;BME280;19910;42.652;23.332;2023-10-31T04:37:00;94703.47;;;7.39;100.00
23176;BME280;19910;42.652;23.332;2023-10-31T04:39:28;94693.81;;;7.38;100.00
23176;BME280;19910;42.652;23.332;2023-10-31T04:41:55;94696.38;;;7.43;100.00
23176;BME280;19910;42.652;23.332;2023-10-31T04:44:22;94694.03;;;7.28;100.00
23176;BME280;19910;42.652;23.332;2023-10-31T04:46:48;94700.91;;;7.34;100.00
23176;BME280;19910;42.652;23.332;2023-10-31T04:49:15;94703.94;;;7.41;100.00
23176;BME280;19910;42.652;23.332;2023-10-31T04:51:42;94713.63;;;7.42;100.00
23176;BME280;19910;42.652;23.332;2023-10-31T04:54:09;94701.41;;;7.36;100.00
23176;BME280;19910;42.652;23.332;2023-10-31T04:56:38;94703.94;;;7.41;100.00
23176;BME280;19910;42.652;23.332;2023-10-31T04:59:05;94719.91;;;7.51;100.00
23176;BME280;19910;42.652;23.332;2023-10-31T05:01:32;94720.50;;;7.48;100.00
23176;BME280;19910;42.652;23.332;2023-10-31T05:03:59;94721.72;;;7.42;100.00
23176;BME280;19910;42.652;23.332;2023-10-31T05:06:26;94725.69;;;7.22;100.00
23176;BME280;19910;42.652;23.332;2023-10-31T05:08:53;94724.88;;;7.22;100.00
23176;BME280;19910;42.652;23.332;2023-10-31T05:11:20;94726.91;;;7.38;100.00
23176;BME280;19910;42.652;23.332;2023-10-31T05:13:48;94718.13;;;7.46;100.00
23176;BME280;19910;42.652;23.332;2023-10-31T05:16:15;94724.66;;;7.32;100.00
23176;BME280;19910;42.652;23.332;2023-10-31T05:18:42;94722.81;;;7.41;100.00
23176;BME280;19910;42.652;23.332;2023-10-31T05:21:09;94725.66;;;7.58;100.00
23176;BME280;19910;42.652;23.332;2023-10-31T05:23:35;94724.53;;;8.04;100.00
23176;BME280;19910;42.652;23.332;2023-10-31T05:26:05;94715.78;;;8.69;100.00
23176;BME280;19910;42.652;23.332;2023-10-31T05:28:31;94726.91;;;8.76;100.00
23176;BME280;19910;42.652;23.332;2023-10-31T05:31:00;94717.50;;;8.65;100.00
23176;BME280;19910;42.652;23.332;2023-10-31T05:33:26;94704.44;;;9.06;100.00
23176;BME280;19910;42.652;23.332;2023-10-31T05:35:53;94714.97;;;9.25;100.00
23176;BME280;19910;42.652;23.332;2023-10-31T05:38:20;94721.78;;;9.74;100.00
23176;BME280;19910;42.652;23.332;2023-10-31T05:40:47;94722.78;;;10.51;100.00
23176;BME280;19910;42.652;23.332;2023-10-31T05:43:14;94719.97;;;11.27;100.00
23176;BME280;19910;42.652;23.332;2023-10-31T05:45:41;94709.34;;;12.17;95.98
23176;BME280;19910;42.652;23.332;2023-10-31T05:48:10;94693.22;;;13.42;91.14
23176;BME280;19910;42.652;23.332;2023-10-31T05:50:41;94698.13;;;13.77;87.16
23176;BME280;19910;42.652;23.332;2023-10-31T05:53:08;94697.72;;;14.46;83.39
23176;BME280;19910;42.652;23.332;2023-10-31T05:55:38;94699.38;;;14.67;81.69
23176;BME280;19910;42.652;23.332;2023-10-31T05:58:07;94708.16;;;15.23;81.23
23176;BME280;19910;42.652;23.332;2023-10-31T06:00:34;94719.97;;;14.64;80.30
23176;BME280;19910;42.652;23.332;2023-10-31T06:03:02;94733.97;;;13.79;83.43
23176;BME280;19910;42.652;23.332;2023-10-31T06:05:31;94740.69;;;13.97;82.84
23176;BME280;19910;42.652;23.332;2023-10-31T06:07:58;94737.94;;;14.09;83.36
23176;BME280;19910;42.652;23.332;2023-10-31T06:10:26;94740.91;;;15.23;80.07
23176;BME280;19910;42.652;23.332;2023-10-31T06:12:53;94739.81;;;15.43;77.80
23176;BME280;19910;42.652;23.332;2023-10-31T06:15:22;94737.03;;;14.61;80.10
23176;BME280;19910;42.652;23.332;2023-10-31T06:17:50;94738.53;;;14.90;80.11
23176;BME280;19910;42.652;23.332;2023-10-31T06:20:17;94740.97;;;14.36;81.41
23176;BME280;19910;42.652;23.332;2023-10-31T06:22:46;94729.94;;;13.12;85.61
23176;BME280;19910;42.652;23.332;2023-10-31T06:25:13;94733.59;;;12.92;87.20
23176;BME280;19910;42.652;23.332;2023-10-31T06:27:39;94735.47;;;12.09;90.43
23176;BME280;19910;42.652;23.332;2023-10-31T06:30:08;94751.63;;;12.39;91.55
23176;BME280;19910;42.652;23.332;2023-10-31T06:32:35;94747.63;;;12.69;89.75
23176;BME280;19910;42.652;23.332;2023-10-31T06:35:01;94749.16;;;12.58;90.09
23176;BME280;19910;42.652;23.332;2023-10-31T06:37:28;94747.97;;;12.80;89.39
23176;BME280;19910;42.652;23.332;2023-10-31T06:39:56;94752.16;;;12.90;89.88
23176;BME280;19910;42.652;23.332;2023-10-31T06:42:23;94747.38;;;12.87;90.92
23176;BME280;19910;42.652;23.332;2023-10-31T06:44:50;94746.25;;;12.75;90.69
23176;BME280;19910;42.652;23.332;2023-10-31T06:47:16;94742.97;;;12.70;91.24
23176;BME280;19910;42.652;23.332;2023-10-31T06:49:43;94736.97;;;12.76;91.67
23176;BME280;19910;42.652;23.332;2023-10-31T06:52:10;94742.66;;;12.84;91.75
23176;BME280;19910;42.652;23.332;2023-10-31T06:54:37;94734.03;;;12.94;91.18
23176;BME280;19910;42.652;23.332;2023-10-31T06:57:08;94735.38;;;12.63;91.12
23176;BME280;19910;42.652;23.332;2023-10-31T06:59:35;94736.97;;;12.76;92.36
23176;BME280;19910;42.652;23.332;2023-10-31T07:02:02;94737.88;;;12.68;91.32
23176;BME280;19910;42.652;23.332;2023-10-31T07:04:29;94746.50;;;12.82;92.59
23176;BME280;19910;42.652;23.332;2023-10-31T07:06:55;94726.69;;;13.06;90.40
23176;BME280;19910;42.652;23.332;2023-10-31T07:09:23;94727.09;;;12.60;91.27
23176;BME280;19910;42.652;23.332;2023-10-31T07:11:50;94737.97;;;12.60;92.75
23176;BME280;19910;42.652;23.332;2023-10-31T07:14:19;94733.78;;;12.74;91.65
23176;BME280;19910;42.652;23.332;2023-10-31T07:16:47;94716.22;;;12.60;91.47
23176;BME280;19910;42.652;23.332;2023-10-31T07:19:15;94724.50;;;12.63;91.83
23176;BME280;19910;42.652;23.332;2023-10-31T07:21:42;94731.53;;;12.89;90.96
23176;BME280;19910;42.652;23.332;2023-10-31T07:24:09;94726.22;;;12.92;90.90
23176;BME280;19910;42.652;23.332;2023-10-31T07:26:36;94722.25;;;13.02;90.71
23176;BME280;19910;42.652;23.332;2023-10-31T07:29:05;94721.56;;;13.41;88.82
23176;BME280;19910;42.652;23.332;2023-10-31T07:31:34;94709.78;;;13.49;88.11
23176;BME280;19910;42.652;23.332;2023-10-31T07:34:04;94711.78;;;13.65;88.81
23176;BME280;19910;42.652;23.332;2023-10-31T07:36:31;94718.50;;;13.83;87.54
23176;BME280;19910;42.652;23.332;2023-10-31T07:39:00;94715.34;;;14.09;86.43
23176;BME280;19910;42.652;23.332;2023-10-31T07:41:27;94717.31;;;14.24;85.39
23176;BME280;19910;42.652;23.332;2023-10-31T07:43:54;94705.06;;;14.02;85.09
23176;BME280;19910;42.652;23.332;2023-10-31T07:46:21;94703.91;;;14.03;85.89
23176;BME280;19910;42.652;23.332;2023-10-31T07:48:50;94692.66;;;14.33;85.63
23176;BME280;19910;42.652;23.332;2023-10-31T07:51:16;94693.41;;;14.61;83.70
23176;BME280;19910;42.652;23.332;2023-10-31T07:53:43;94691.28;;;14.54;83.74
23176;BME280;19910;42.652;23.332;2023-10-31T07:56:15;94685.94;;;14.74;83.80
23176;BME280;19910;42.652;23.332;2023-10-31T07:58:42;94674.28;;;14.92;82.17
23176;BME280;19910;42.652;23.332;2023-10-31T08:01:09;94677.00;;;15.08;80.98
23176;BME280;19910;42.652;23.332;2023-10-31T08:03:37;94669.19;;;14.91;81.71
23176;BME280;19910;42.652;23.332;2023-10-31T08:06:06;94669.28;;;14.94;81.22
23176;BME280;19910;42.652;23.332;2023-10-31T08:08:33;94665.41;;;14.96;81.43
23176;BME280;19910;42.652;23.332;2023-10-31T08:11:00;94670.50;;;15.13;82.10
23176;BME280;19910;42.652;23.332;2023-10-31T08:13:27;94666.59;;;15.29;80.32
23176;BME280;19910;42.652;23.332;2023-10-31T08:15:54;94674.84;;;15.33;80.86
23176;BME280;19910;42.652;23.332;2023-10-31T08:18:22;94661.94;;;15.49;79.84
23176;BME280;19910;42.652;23.332;2023-10-31T08:20:49;94662.63;;;15.62;79.65
23176;BME280;19910;42.652;23.332;2023-10-31T08:23:17;94658.91;;;15.70;79.61
23176;BME280;19910;42.652;23.332;2023-10-31T08:25:44;94650.06;;;15.77;78.91
23176;BME280;19910;42.652;23.332;2023-10-31T08:28:12;94647.59;;;15.91;78.05
23176;BME280;19910;42.652;23.332;2023-10-31T08:30:39;94632.00;;;16.11;77.36
23176;BME280;19910;42.652;23.332;2023-10-31T08:33:05;94627.97;;;16.27;76.93
23176;BME280;19910;42.652;23.332;2023-10-31T08:35:32;94631.72;;;16.39;76.03
23176;BME280;19910;42.652;23.332;2023-10-31T08:38:00;94624.16;;;16.55;77.05
23176;BME280;19910;42.652;23.332;2023-10-31T08:40:28;94608.00;;;16.69;75.89
23176;BME280;19910;42.652;23.332;2023-10-31T08:42:55;94605.81;;;16.78;74.79
23176;BME280;19910;42.652;23.332;2023-10-31T08:45:22;94614.13;;;16.85;75.50
23176;BME280;19910;42.652;23.332;2023-10-31T08:47:49;94607.00;;;17.03;73.89
23176;BME280;19910;42.652;23.332;2023-10-31T08:50:16;94598.19;;;17.17;74.25
23176;BME280;19910;42.652;23.332;2023-10-31T08:52:43;94602.47;;;16.88;73.58
23176;BME280;19910;42.652;23.332;2023-10-31T08:55:10;94584.25;;;16.99;73.05
23176;BME280;19910;42.652;23.332;2023-10-31T08:57:38;94583.41;;;16.95;73.01
23176;BME280;19910;42.652;23.332;2023-10-31T09:00:06;94580.88;;;16.83;70.13
23176;BME280;19910;42.652;23.332;2023-10-31T09:02:33;94581.09;;;16.97;66.90
23176;BME280;19910;42.652;23.332;2023-10-31T09:05:00;94584.16;;;16.92;67.05
23176;BME280;19910;42.652;23.332;2023-10-31T09:07:27;94571.69;;;17.25;66.09
23176;BME280;19910;42.652;23.332;2023-10-31T09:09:54;94566.16;;;17.51;65.02
23176;BME280;19910;42.652;23.332;2023-10-31T09:12:20;94553.28;;;17.55;64.90
23176;BME280;19910;42.652;23.332;2023-10-31T09:14:49;94551.41;;;17.59;64.38
23176;BME280;19910;42.652;23.332;2023-10-31T09:17:15;94539.53;;;17.48;63.80
23176;BME280;19910;42.652;23.332;2023-10-31T09:19:42;94545.22;;;17.66;63.30
23176;BME280;19910;42.652;23.332;2023-10-31T09:22:09;94540.88;;;17.98;62.32
23176;BME280;19910;42.652;23.332;2023-10-31T09:24:36;94535.03;;;18.00;61.76
23176;BME280;19910;42.652;23.332;2023-10-31T09:27:03;94533.63;;;17.76;62.06
23176;BME280;19910;42.652;23.332;2023-10-31T09:29:30;94528.28;;;17.94;62.34
23176;BME280;19910;42.652;23.332;2023-10-31T09:31:58;94521.03;;;18.12;60.86
23176;BME280;19910;42.652;23.332;2023-10-31T09:34:25;94512.22;;;17.92;60.75
23176;BME280;19910;42.652;23.332;2023-10-31T09:36:52;94507.88;;;18.28;61.23
23176;BME280;19910;42.652;23.332;2023-10-31T09:39:18;94510.72;;;18.42;60.71
23176;BME280;19910;42.652;23.332;2023-10-31T09:41:47;94507.59;;;18.44;59.35
23176;BME280;19910;42.652;23.332;2023-10-31T09:44:14;94498.00;;;18.68;58.45
23176;BME280;19910;42.652;23.332;2023-10-31T09:46:41;94489.00;;;18.71;58.95
23176;BME280;19910;42.652;23.332;2023-10-31T09:49:09;94472.94;;;18.73;58.75
23176;BME280;19910;42.652;23.332;2023-10-31T09:51:37;94478.78;;;18.68;58.12
23176;BME280;19910;42.652;23.332;2023-10-31T09:54:05;94467.81;;;18.68;58.07
23176;BME280;19910;42.652;23.332;2023-10-31T09:56:33;94465.91;;;18.79;57.01
23176;BME280;19910;42.652;23.332;2023-10-31T09:59:00;94464.09;;;19.04;56.81
23176;BME280;19910;42.652;23.332;2023-10-31T10:01:28;94463.38;;;19.29;56.38
23176;BME280;19910;42.652;23.332;2023-10-31T10:03:56;94453.50;;;19.06;56.57
23176;BME280;19910;42.652;23.332;2023-10-31T10:06:24;94453.53;;;19.10;56.29
23176;BME280;19910;42.652;23.332;2023-10-31T10:08:51;94440.63;;;19.28;56.97
23176;BME280;19910;42.652;23.332;2023-10-31T10:11:18;94440.75;;;19.53;55.55
23176;BME280;19910;42.652;23.332;2023-10-31T10:13:45;94421.16;;;19.65;55.57
23176;BME280;19910;42.652;23.332;2023-10-31T10:16:12;94424.69;;;19.73;54.38
23176;BME280;19910;42.652;23.332;2023-10-31T10:18:39;94424.69;;;19.83;55.59
23176;BME280;19910;42.652;23.332;2023-10-31T10:21:07;94414.47;;;19.73;54.33
23176;BME280;19910;42.652;23.332;2023-10-31T10:23:36;94411.31;;;19.71;53.44
23176;BME280;19910;42.652;23.332;2023-10-31T10:26:03;94410.91;;;19.55;53.12
23176;BME280;19910;42.652;23.332;2023-10-31T10:28:30;94408.91;;;19.38;53.54
23176;BME280;19910;42.652;23.332;2023-10-31T10:30:58;94406.16;;;19.38;53.63
23176;BME280;19910;42.652;23.332;2023-10-31T10:33:25;94405.81;;;19.61;52.08
23176;BME280;19910;42.652;23.332;2023-10-31T10:35:54;94407.81;;;19.67;51.42
23176;BME280;19910;42.652;23.332;2023-10-31T10:38:22;94410.16;;;19.72;50.66
23176;BME280;19910;42.652;23.332;2023-10-31T10:40:50;94399.19;;;19.94;49.79
23176;BME280;19910;42.652;23.332;2023-10-31T10:43:21;94385.03;;;20.16;50.56
23176;BME280;19910;42.652;23.332;2023-10-31T10:45:53;94378.72;;;20.12;51.35
23176;BME280;19910;42.652;23.332;2023-10-31T10:48:22;94374.44;;;20.36;50.70
23176;BME280;19910;42.652;23.332;2023-10-31T10:50:55;94358.22;;;20.67;49.90
23176;BME280;19910;42.652;23.332;2023-10-31T10:53:24;94366.84;;;20.72;49.98
23176;BME280;19910;42.652;23.332;2023-10-31T10:55:57;94361.41;;;20.54;47.32
23176;BME280;19910;42.652;23.332;2023-10-31T10:58:33;94359.84;;;20.32;47.54
23176;BME280;19910;42.652;23.332;2023-10-31T11:01:01;94341.00;;;20.34;48.26
23176;BME280;19910;42.652;23.332;2023-10-31T11:03:29;94335.47;;;20.48;47.28
23176;BME280;19910;42.652;23.332;2023-10-31T11:05:57;94336.56;;;20.69;45.47
23176;BME280;19910;42.652;23.332;2023-10-31T11:08:24;94334.88;;;20.96;43.71
23176;BME280;19910;42.652;23.332;2023-10-31T11:10:55;94336.91;;;20.81;43.20
23176;BME280;19910;42.652;23.332;2023-10-31T11:13:23;94333.38;;;20.84;42.05
23176;BME280;19910;42.652;23.332;2023-10-31T11:15:55;94330.44;;;21.23;41.84
23176;BME280;19910;42.652;23.332;2023-10-31T11:18:24;94327.59;;;21.38;42.10
23176;BME280;19910;42.652;23.332;2023-10-31T11:20:51;94321.31;;;21.34;41.30
23176;BME280;19910;42.652;23.332;2023-10-31T11:23:18;94312.47;;;20.94;43.42
23176;BME280;19910;42.652;23.332;2023-10-31T11:25:49;94316.19;;;21.36;42.34
23176;BME280;19910;42.652;23.332;2023-10-31T11:28:20;94305.25;;;21.21;40.67
23176;BME280;19910;42.652;23.332;2023-10-31T11:30:48;94298.09;;;21.35;40.81
23176;BME280;19910;42.652;23.332;2023-10-31T11:33:16;94297.31;;;21.34;40.16
23176;BME280;19910;42.652;23.332;2023-10-31T11:35:50;94290.25;;;21.30;40.66
23176;BME280;19910;42.652;23.332;2023-10-31T11:38:30;94283.56;;;21.31;41.02
23176;BME280;19910;42.652;23.332;2023-10-31T11:41:00;94287.84;;;21.39;40.49
23176;BME280;19910;42.652;23.332;2023-10-31T11:43:50;94276.97;;;21.10;40.88
23176;BME280;19910;42.652;23.332;2023-10-31T11:46:18;94278.63;;;20.97;41.28
23176;BME280;19910;42.652;23.332;2023-10-31T11:48:47;94270.66;;;21.13;41.91
23176;BME280;19910;42.652;23.332;2023-10-31T11:51:16;94271.53;;;21.58;42.52
23176;BME280;19910;42.652;23.332;2023-10-31T11:53:43;94264.63;;;21.84;42.09
23176;BME280;19910;42.652;23.332;2023-10-31T11:56:10;94264.63;;;21.84;41.42
23176;BME280;19910;42.652;23.332;2023-10-31T11:58:39;94254.66;;;21.94;40.76
23176;BME280;19910;42.652;23.332;2023-10-31T12:01:09;94251.28;;;21.76;41.31
23176;BME280;19910;42.652;23.332;2023-10-31T12:03:37;94255.72;;;21.66;41.30
23176;BME280;19910;42.652;23.332;2023-10-31T12:06:05;94255.78;;;21.59;41.52
23176;BME280;19910;42.652;23.332;2023-10-31T12:08:33;94247.69;;;21.82;41.35
23176;BME280;19910;42.652;23.332;2023-10-31T12:11:07;94241.09;;;22.14;41.37
23176;BME280;19910;42.652;23.332;2023-10-31T12:13:36;94231.69;;;22.08;42.21
23176;BME280;19910;42.652;23.332;2023-10-31T12:16:05;94231.00;;;22.34;42.03
23176;BME280;19910;42.652;23.332;2023-10-31T12:18:33;94229.19;;;22.54;40.95
23176;BME280;19910;42.652;23.332;2023-10-31T12:21:00;94224.84;;;22.23;40.56
23176;BME280;19910;42.652;23.332;2023-10-31T12:23:26;94220.28;;;22.06;41.61
23176;BME280;19910;42.652;23.332;2023-10-31T12:25:54;94227.88;;;22.32;40.83
23176;BME280;19910;42.652;23.332;2023-10-31T12:28:23;94223.56;;;22.61;40.42
23176;BME280;19910;42.652;23.332;2023-10-31T12:30:51;94223.59;;;23.19;39.92
23176;BME280;19910;42.652;23.332;2023-10-31T12:33:22;94223.94;;;23.48;39.40
23176;BME280;19910;42.652;23.332;2023-10-31T12:35:51;94212.34;;;23.06;39.37
23176;BME280;19910;42.652;23.332;2023-10-31T12:38:18;94210.72;;;22.82;39.89
23176;BME280;19910;42.652;23.332;2023-10-31T12:40:46;94195.13;;;22.64;40.17
23176;BME280;19910;42.652;23.332;2023-10-31T12:43:15;94184.06;;;22.68;40.68
23176;BME280;19910;42.652;23.332;2023-10-31T12:45:42;94190.81;;;22.63;41.77
23176;BME280;19910;42.652;23.332;2023-10-31T12:48:10;94187.06;;;22.81;42.13
23176;BME280;19910;42.652;23.332;2023-10-31T12:50:39;94181.63;;;22.70;41.87
23176;BME280;19910;42.652;23.332;2023-10-31T12:53:06;94186.88;;;22.30;42.41